createdAt,value
2023-03-25T00:02:24.766Z,34.08
2023-03-25T00:04:52.998Z,35.13
2023-03-25T00:07:21.348Z,34.20
2023-03-25T00:09:49.648Z,34.42
2023-03-25T00:12:19.588Z,33.70
2023-03-25T00:14:54.879Z,33.88
2023-03-25T00:17:23.668Z,32.80
2023-03-25T00:19:52.114Z,33.88
2023-03-25T00:22:20.826Z,33.83
2023-03-25T00:24:49.051Z,34.17
2023-03-25T00:27:17.626Z,33.97
2023-03-25T00:29:46.005Z,32.25
2023-03-25T00:32:16.136Z,32.45
2023-03-25T00:34:47.582Z,32.20
2023-03-25T00:37:17.795Z,33.50
2023-03-25T00:39:46.283Z,32.42
2023-03-25T00:42:17.073Z,32.25
2023-03-25T00:44:45.224Z,33.08
2023-03-25T00:47:18.380Z,30.90
2023-03-25T00:49:47.973Z,31.65
2023-03-25T00:52:16.857Z,30.63
2023-03-25T00:54:45.991Z,32.08
2023-03-25T00:57:14.155Z,29.73
2023-03-25T00:59:42.281Z,30.02
2023-03-25T01:02:10.542Z,30.63
2023-03-25T01:04:41.519Z,30.27
2023-03-25T01:07:12.727Z,29.95
2023-03-25T01:09:41.665Z,29.10
2023-03-25T01:12:09.927Z,28.67
2023-03-25T01:14:38.111Z,29.10
2023-03-25T01:17:06.378Z,29.23
2023-03-25T01:19:34.577Z,28.52
2023-03-25T01:22:02.780Z,28.83
2023-03-25T01:24:32.561Z,28.15
2023-03-25T01:27:00.776Z,28.77
2023-03-25T01:29:30.388Z,28.38
2023-03-25T01:31:58.998Z,29.23
2023-03-25T01:34:27.212Z,27.73
2023-03-25T01:36:55.983Z,28.17
2023-03-25T01:39:24.398Z,28.23
2023-03-25T01:41:55.377Z,26.73
2023-03-25T01:45:01.528Z,27.17
2023-03-25T01:47:29.690Z,26.50
2023-03-25T01:49:57.929Z,27.10
2023-03-25T01:52:26.764Z,26.25
2023-03-25T01:54:55.290Z,26.65
2023-03-25T01:57:26.011Z,25.63
2023-03-25T01:59:55.028Z,26.45
2023-03-25T02:02:25.293Z,25.58
2023-03-25T02:05:02.498Z,24.48
2023-03-25T02:07:32.841Z,24.02
2023-03-25T02:10:02.271Z,24.40
2023-03-25T02:12:31.952Z,24.27
2023-03-25T02:15:01.422Z,25.00
2023-03-25T02:17:33.076Z,23.88
2023-03-25T02:20:13.943Z,24.38
2023-03-25T02:23:07.713Z,24.35
2023-03-25T02:26:14.774Z,23.95
2023-03-25T02:28:47.469Z,22.92
2023-03-25T02:31:25.589Z,23.38
2023-03-25T02:34:15.472Z,24.25
2023-03-25T02:37:22.893Z,24.55
2023-03-25T02:39:53.443Z,22.48
2023-03-25T02:42:24.302Z,23.27
2023-03-25T02:44:55.377Z,22.17
2023-03-25T02:47:24.461Z,21.95
2023-03-25T02:49:54.545Z,22.67
2023-03-25T02:52:24.985Z,22.42
2023-03-25T02:54:58.002Z,21.08
2023-03-25T02:57:28.719Z,23.08
2023-03-25T02:59:57.168Z,21.17
2023-03-25T03:02:26.726Z,21.33
2023-03-25T03:04:56.070Z,21.67
2023-03-25T03:07:25.600Z,20.38
2023-03-25T03:10:01.984Z,21.23
2023-03-25T03:12:41.271Z,20.23
2023-03-25T03:15:18.130Z,20.67
2023-03-25T03:17:50.406Z,20.33
2023-03-25T03:20:20.232Z,20.33
2023-03-25T03:22:52.979Z,20.17
2023-03-25T03:25:25.948Z,19.70
2023-03-25T03:27:56.593Z,19.63
2023-03-25T03:30:29.988Z,18.95
2023-03-25T03:33:01.402Z,19.90
2023-03-25T03:35:31.815Z,19.15
2023-03-25T03:38:01.686Z,18.75
2023-03-25T03:40:31.539Z,18.77
2023-03-25T03:43:01.079Z,19.15
2023-03-25T03:45:32.020Z,18.73
2023-03-25T03:48:01.729Z,19.02
2023-03-25T03:50:31.682Z,19.45
2023-03-25T03:53:03.201Z,18.75
2023-03-25T03:55:37.853Z,18.67
2023-03-25T03:58:08.218Z,17.98
2023-03-25T04:00:37.861Z,18.05
2023-03-25T04:03:09.008Z,17.17
2023-03-25T04:05:38.263Z,17.02
2023-03-25T04:08:11.945Z,17.85
2023-03-25T04:10:45.636Z,18.10
2023-03-25T04:13:15.051Z,17.70
2023-03-25T04:15:43.330Z,16.38
2023-03-25T04:18:12.178Z,17.60
2023-03-25T04:20:45.029Z,17.17
2023-03-25T04:23:16.239Z,16.70
2023-03-25T04:25:47.854Z,16.63
2023-03-25T04:28:18.220Z,17.45
2023-03-25T04:30:46.411Z,16.58
2023-03-25T04:33:14.785Z,15.18
2023-03-25T04:35:42.999Z,15.63
2023-03-25T04:38:11.934Z,16.15
2023-03-25T04:40:40.933Z,15.90
2023-03-25T04:43:10.534Z,16.08
2023-03-25T04:45:38.736Z,16.30
2023-03-25T04:48:07.188Z,15.52
2023-03-25T04:50:35.531Z,16.23
2023-03-25T04:53:03.632Z,14.93
2023-03-25T04:55:31.782Z,16.55
2023-03-25T04:57:59.893Z,15.15
2023-03-25T05:00:29.463Z,15.18
2023-03-25T05:03:02.012Z,15.40
2023-03-25T05:05:30.409Z,14.85
2023-03-25T05:07:59.195Z,14.45
2023-03-25T05:10:29.662Z,15.00
2023-03-25T05:12:59.828Z,14.23
2023-03-25T05:15:30.586Z,14.75
2023-03-25T05:17:58.742Z,14.18
2023-03-25T05:20:26.896Z,13.63
2023-03-25T05:22:57.544Z,14.15
2023-03-25T05:25:25.736Z,14.15
2023-03-25T05:27:54.476Z,13.45
2023-03-25T05:30:22.625Z,12.77
2023-03-25T05:32:56.590Z,13.15
2023-03-25T05:35:26.763Z,13.60
2023-03-25T05:37:55.968Z,13.63
2023-03-25T05:40:25.441Z,14.48
2023-03-25T05:42:54.741Z,14.10
2023-03-25T05:45:22.970Z,13.27
2023-03-25T05:47:52.550Z,13.25
2023-03-25T05:50:21.765Z,14.45
2023-03-25T05:52:51.916Z,13.77
2023-03-25T05:55:21.502Z,13.93
2023-03-25T05:57:49.778Z,14.25
2023-03-25T06:00:19.274Z,14.05
2023-03-25T06:02:48.894Z,13.68
2023-03-25T06:05:23.564Z,14.70
2023-03-25T06:07:52.196Z,15.77
2023-03-25T06:10:21.012Z,16.40
2023-03-25T06:12:53.141Z,17.50
2023-03-25T06:15:29.057Z,20.90
2023-03-25T06:17:57.645Z,23.70
2023-03-25T06:20:27.295Z,20.48
2023-03-25T06:22:55.638Z,24.55
2023-03-25T06:25:24.375Z,23.50
2023-03-25T06:27:52.586Z,21.50
2023-03-25T06:30:21.294Z,26.50
2023-03-25T06:32:50.840Z,34.28
2023-03-25T06:35:20.295Z,29.63
2023-03-25T06:37:50.505Z,29.60
2023-03-25T06:40:31.131Z,37.97
2023-03-25T06:43:02.550Z,32.20
2023-03-25T06:46:02.541Z,32.42
2023-03-25T06:48:53.785Z,34.33
2023-03-25T06:51:23.912Z,41.53
2023-03-25T06:53:53.626Z,37.08
2023-03-25T06:56:21.910Z,37.05
2023-03-25T06:58:50.069Z,36.53
2023-03-25T07:01:18.244Z,36.75
2023-03-25T07:03:46.445Z,36.03
2023-03-25T07:06:17.193Z,35.50
2023-03-25T07:08:45.339Z,36.78
2023-03-25T07:11:15.181Z,35.97
2023-03-25T07:13:43.431Z,35.80
2023-03-25T07:16:11.869Z,35.97
2023-03-25T07:18:42.877Z,34.55
2023-03-25T07:21:10.981Z,34.00
2023-03-25T07:23:40.780Z,33.03
2023-03-25T07:26:09.084Z,34.08
2023-03-25T07:28:39.270Z,33.60
2023-03-25T07:31:09.102Z,32.45
2023-03-25T07:33:37.241Z,32.15
2023-03-25T07:36:06.322Z,30.50
2023-03-25T07:38:34.466Z,31.20
2023-03-25T07:41:06.590Z,31.88
2023-03-25T07:43:34.862Z,30.08
2023-03-25T07:46:14.505Z,30.00
2023-03-25T07:48:44.097Z,29.33
2023-03-25T07:51:12.612Z,29.42
2023-03-25T07:53:44.582Z,29.45
2023-03-25T07:56:12.801Z,28.65
2023-03-25T07:58:42.005Z,28.02
2023-03-25T08:01:10.214Z,27.88
2023-03-25T08:03:40.137Z,26.48
2023-03-25T08:06:09.261Z,26.50
2023-03-25T08:08:37.452Z,27.30
2023-03-25T08:11:06.212Z,27.50
2023-03-25T08:13:34.435Z,26.10
2023-03-25T08:16:02.626Z,26.02
2023-03-25T08:18:31.284Z,25.95
2023-03-25T08:21:00.780Z,25.52
2023-03-25T08:23:29.119Z,24.80
2023-03-25T08:25:57.278Z,25.10
2023-03-25T08:28:27.080Z,25.15
2023-03-25T08:30:55.961Z,24.17
2023-03-25T08:33:34.062Z,24.42
2023-03-25T08:36:04.198Z,23.98
2023-03-25T08:38:34.859Z,24.25
2023-03-25T08:41:03.321Z,22.83
2023-03-25T08:43:31.378Z,22.65
2023-03-25T08:45:59.667Z,22.98
2023-03-25T08:48:27.995Z,22.58
2023-03-25T08:50:56.264Z,21.65
2023-03-25T08:53:26.070Z,22.15
2023-03-25T08:55:54.416Z,22.00
2023-03-25T08:58:22.590Z,22.10
2023-03-25T09:00:53.698Z,21.52
2023-03-25T09:03:22.098Z,21.65
2023-03-25T09:05:50.467Z,20.13
2023-03-25T09:08:18.818Z,21.20
2023-03-25T09:10:48.434Z,20.13
2023-03-25T09:13:16.732Z,20.50
2023-03-25T09:15:44.892Z,20.15
2023-03-25T09:18:13.009Z,20.05
2023-03-25T09:20:41.528Z,19.38
2023-03-25T09:23:09.907Z,18.63
2023-03-25T09:25:39.351Z,19.05
2023-03-25T09:28:09.138Z,19.27
2023-03-25T09:30:37.307Z,18.70
2023-03-25T09:33:06.016Z,18.33
2023-03-25T09:35:34.283Z,18.40
2023-03-25T09:38:02.644Z,17.80
2023-03-25T09:40:31.950Z,19.08
2023-03-25T09:43:12.404Z,17.67
2023-03-25T09:45:41.617Z,17.40
2023-03-25T09:48:18.248Z,17.42
2023-03-25T09:50:46.468Z,17.25
2023-03-25T09:53:18.408Z,17.55
2023-03-25T09:55:46.785Z,17.83
2023-03-25T09:58:28.018Z,17.40
2023-03-25T10:00:58.046Z,16.33
2023-03-25T10:03:28.616Z,16.38
2023-03-25T10:06:02.957Z,16.35
2023-03-25T10:08:36.160Z,16.38
2023-03-25T10:11:08.788Z,16.48
2023-03-25T10:13:42.771Z,15.90
2023-03-25T10:16:15.756Z,15.75
2023-03-25T10:18:49.321Z,15.65
2023-03-25T10:21:20.060Z,15.13
2023-03-25T10:23:51.096Z,15.45
2023-03-25T10:26:21.257Z,15.40
2023-03-25T10:28:53.877Z,15.77
2023-03-25T10:31:23.932Z,15.05
2023-03-25T10:33:54.265Z,14.85
2023-03-25T10:36:25.022Z,14.68
2023-03-25T10:38:55.618Z,13.80
2023-03-25T10:41:26.598Z,14.75
2023-03-25T10:43:56.173Z,14.90
2023-03-25T10:46:28.621Z,14.95
2023-03-25T10:48:56.942Z,14.20
2023-03-25T10:51:27.956Z,13.63
2023-03-25T10:53:56.531Z,13.30
2023-03-25T10:56:26.847Z,13.52
2023-03-25T10:58:57.191Z,13.65
2023-03-25T11:01:33.808Z,13.85
2023-03-25T11:04:01.953Z,13.02
2023-03-25T11:06:31.111Z,13.20
2023-03-25T11:09:07.137Z,13.25
2023-03-25T11:11:35.684Z,13.07
2023-03-25T11:14:05.305Z,12.02
2023-03-25T11:16:34.060Z,12.45
2023-03-25T11:19:02.551Z,13.32
2023-03-25T11:21:33.037Z,12.80
2023-03-25T11:24:01.967Z,12.35
2023-03-25T11:26:33.870Z,12.23
2023-03-25T11:29:02.940Z,11.98
2023-03-25T11:31:35.093Z,11.90
2023-03-25T11:34:06.433Z,11.77
2023-03-25T11:36:34.878Z,11.88
2023-03-25T11:39:04.540Z,11.93
2023-03-25T11:41:33.712Z,11.77
2023-03-25T11:44:02.437Z,11.95
2023-03-25T11:46:30.996Z,11.77
2023-03-25T11:49:02.946Z,11.05
2023-03-25T11:51:31.508Z,11.38
2023-03-25T11:54:00.856Z,10.90
2023-03-25T11:56:31.556Z,11.27
2023-03-25T11:58:59.976Z,11.07
2023-03-25T12:01:30.921Z,10.88
2023-03-25T12:04:17.128Z,10.25
2023-03-25T12:06:59.559Z,10.63
2023-03-25T12:09:30.439Z,10.23
2023-03-25T12:12:18.791Z,9.77
2023-03-25T12:14:52.640Z,10.27
2023-03-25T12:17:25.720Z,9.85
2023-03-25T12:19:59.491Z,9.75
2023-03-25T12:22:35.371Z,10.13
2023-03-25T12:25:13.528Z,10.05
2023-03-25T12:27:49.156Z,9.02
2023-03-25T12:30:25.059Z,9.27
2023-03-25T12:32:56.030Z,9.55
2023-03-25T12:35:30.601Z,9.18
2023-03-25T12:38:12.258Z,9.23
2023-03-25T12:40:51.289Z,9.10
2023-03-25T12:43:21.662Z,8.95
2023-03-25T12:45:55.673Z,9.25
2023-03-25T12:48:41.788Z,8.55
2023-03-25T12:51:16.232Z,8.75
2023-03-25T12:53:49.959Z,8.77
2023-03-25T12:56:28.955Z,8.68
2023-03-25T12:59:06.887Z,8.73
2023-03-25T13:01:38.535Z,8.73
2023-03-25T13:04:22.843Z,9.10
2023-03-25T13:06:58.817Z,8.30
2023-03-25T13:09:27.997Z,8.10
2023-03-25T13:11:57.153Z,8.35
2023-03-25T13:14:26.523Z,7.93
2023-03-25T13:16:55.836Z,8.05
2023-03-25T13:19:24.680Z,7.85
2023-03-25T13:21:55.601Z,7.88
2023-03-25T13:24:26.177Z,7.45
2023-03-25T13:26:55.620Z,7.80
2023-03-25T13:29:27.787Z,8.18
2023-03-25T13:31:56.104Z,7.80
2023-03-25T13:34:27.390Z,7.53
2023-03-25T13:37:05.271Z,7.97
2023-03-25T13:39:41.060Z,7.50
2023-03-25T13:42:13.501Z,7.63
2023-03-25T13:44:42.661Z,7.03
2023-03-25T13:47:18.086Z,6.97
2023-03-25T13:49:48.280Z,7.07
2023-03-25T13:52:18.404Z,7.15
2023-03-25T13:54:47.964Z,7.13
2023-03-25T13:57:42.723Z,7.25
2023-03-25T14:00:25.197Z,6.72
2023-03-25T14:03:25.427Z,6.38
2023-03-25T14:06:20.657Z,6.53
2023-03-25T14:09:22.192Z,6.63
2023-03-25T14:11:52.572Z,6.57
2023-03-25T14:14:22.297Z,6.40
2023-03-25T14:16:51.466Z,6.50
2023-03-25T14:19:22.479Z,6.93
2023-03-25T14:21:51.216Z,6.40
2023-03-25T14:24:21.772Z,6.38
2023-03-25T14:26:52.621Z,6.20
2023-03-25T14:29:31.967Z,6.40
2023-03-25T14:32:02.200Z,6.47
2023-03-25T14:34:30.484Z,5.70
2023-03-25T14:37:19.085Z,6.22
2023-03-25T14:39:47.239Z,5.78
2023-03-25T14:42:58.411Z,6.40
2023-03-25T14:45:59.369Z,5.85
2023-03-25T14:48:31.679Z,5.70
2023-03-25T14:51:39.934Z,5.82
2023-03-25T14:54:19.740Z,5.95
2023-03-25T14:56:53.596Z,5.88
2023-03-25T14:59:25.082Z,5.30
2023-03-25T15:01:53.457Z,5.90
2023-03-25T15:04:26.424Z,5.80
2023-03-25T15:06:54.779Z,5.78
2023-03-25T15:09:22.927Z,5.95
2023-03-25T15:11:57.610Z,5.80
2023-03-25T15:14:29.436Z,5.65
2023-03-25T15:17:02.851Z,5.68
2023-03-25T15:19:31.055Z,5.35
2023-03-25T15:22:18.928Z,5.47
2023-03-25T15:24:55.630Z,5.35
2023-03-25T15:27:31.308Z,5.68
2023-03-25T15:30:04.581Z,5.40
2023-03-25T15:32:38.443Z,4.95
2023-03-25T15:35:38.323Z,5.00
2023-03-25T15:38:38.948Z,5.60
2023-03-25T15:41:17.261Z,5.07
2023-03-25T15:44:18.339Z,4.93
2023-03-25T15:47:04.491Z,5.20
2023-03-25T15:49:42.556Z,4.75
2023-03-25T15:52:16.588Z,5.03
2023-03-25T15:54:45.464Z,4.70
2023-03-25T15:57:20.931Z,4.80
2023-03-25T15:59:52.783Z,4.60
2023-03-25T16:02:27.894Z,4.70
2023-03-25T16:04:56.368Z,4.68
2023-03-25T16:07:25.517Z,4.70
2023-03-25T16:09:55.485Z,4.80
2023-03-25T16:12:24.720Z,4.43
2023-03-25T16:14:53.149Z,4.82
2023-03-25T16:17:22.588Z,4.13
2023-03-25T16:19:53.047Z,4.65
2023-03-25T16:22:23.239Z,4.70
2023-03-25T16:24:52.298Z,4.50
2023-03-25T16:27:22.652Z,4.40
2023-03-25T16:29:52.804Z,4.50
2023-03-25T16:32:22.334Z,4.18
2023-03-25T16:34:53.938Z,4.38
2023-03-25T16:37:22.418Z,4.35
2023-03-25T16:39:52.825Z,4.13
2023-03-25T16:42:25.656Z,4.30
2023-03-25T16:44:54.177Z,4.10
2023-03-25T16:47:22.499Z,4.25
2023-03-25T16:49:53.638Z,4.50
2023-03-25T16:52:24.741Z,4.00
2023-03-25T16:55:15.054Z,3.72
2023-03-25T16:57:43.305Z,3.45
2023-03-25T17:00:18.193Z,26.58
2023-03-25T17:02:48.634Z,38.17
2023-03-25T17:05:19.947Z,30.08
2023-03-25T17:07:49.573Z,36.75
2023-03-25T17:10:20.803Z,32.28
2023-03-25T17:12:52.230Z,33.67
2023-03-25T17:15:21.123Z,34.72
2023-03-25T17:17:51.718Z,32.58
2023-03-25T17:20:23.044Z,31.70
2023-03-25T17:23:09.405Z,30.90
2023-03-25T17:25:38.331Z,30.95
2023-03-25T17:28:09.491Z,33.90
2023-03-25T17:30:42.844Z,34.22
2023-03-25T17:33:11.947Z,35.17
2023-03-25T17:35:42.392Z,36.83
2023-03-25T17:38:14.553Z,39.17
2023-03-25T17:40:42.717Z,38.67
2023-03-25T17:43:18.704Z,39.10
2023-03-25T17:45:47.227Z,36.90
2023-03-25T17:48:16.243Z,37.55
2023-03-25T17:50:52.982Z,36.28
2023-03-25T17:53:21.439Z,34.72
2023-03-25T17:55:50.105Z,34.58
2023-03-25T17:58:18.554Z,46.08
2023-03-25T18:00:47.800Z,48.47
2023-03-25T18:03:16.974Z,46.15
2023-03-25T18:05:45.828Z,51.40
2023-03-25T18:08:15.393Z,55.35
2023-03-25T18:10:43.769Z,60.20
2023-03-25T18:13:12.640Z,60.90
2023-03-25T18:15:41.347Z,62.47
2023-03-25T18:18:11.711Z,61.95
2023-03-25T18:20:39.938Z,63.92
2023-03-25T18:23:08.195Z,60.85
2023-03-25T18:25:37.985Z,62.10
2023-03-25T18:28:06.470Z,58.35
2023-03-25T18:30:38.587Z,55.67
2023-03-25T18:33:06.896Z,56.70
2023-03-25T18:35:35.150Z,55.53
2023-03-25T18:38:04.513Z,55.95
2023-03-25T18:40:34.754Z,53.17
2023-03-25T18:43:04.470Z,52.00
2023-03-25T18:45:32.952Z,51.67
2023-03-25T18:48:01.308Z,48.45
2023-03-25T18:50:30.749Z,51.72
2023-03-25T18:52:58.977Z,49.88
2023-03-25T18:55:28.064Z,48.80
2023-03-25T18:57:56.236Z,48.20
2023-03-25T19:00:27.907Z,48.58
2023-03-25T19:02:56.572Z,46.28
2023-03-25T19:05:25.444Z,46.38
2023-03-25T19:07:53.657Z,46.83
2023-03-25T19:10:22.876Z,43.88
2023-03-25T19:12:51.432Z,42.97
2023-03-25T19:15:20.454Z,43.35
2023-03-25T19:17:50.007Z,43.40
2023-03-25T19:20:19.189Z,40.33
2023-03-25T19:22:47.213Z,40.22
2023-03-25T19:25:15.416Z,40.00
2023-03-25T19:27:43.895Z,35.47
2023-03-25T19:30:13.085Z,63.20
2023-03-25T19:32:42.975Z,46.08
2023-03-25T19:35:13.061Z,44.78
2023-03-25T19:37:47.591Z,44.20
2023-03-25T19:40:17.088Z,44.30
2023-03-25T19:42:45.387Z,42.55
2023-03-25T19:45:13.960Z,44.65
2023-03-25T19:47:43.020Z,42.72
2023-03-25T19:50:13.029Z,41.67
2023-03-25T19:52:43.362Z,42.25
2023-03-25T19:55:11.980Z,43.20
2023-03-25T19:57:40.830Z,42.53
2023-03-25T20:00:12.617Z,41.78
2023-03-25T20:02:41.411Z,41.13
2023-03-25T20:05:11.710Z,45.28
2023-03-25T20:07:41.822Z,37.67
2023-03-25T20:10:19.467Z,37.20
2023-03-25T20:12:48.595Z,36.53
2023-03-25T20:15:17.530Z,37.03
2023-03-25T20:17:45.798Z,36.00
2023-03-25T20:20:14.849Z,36.90
2023-03-25T20:22:44.703Z,37.55
2023-03-25T20:25:13.340Z,36.85
2023-03-25T20:27:42.025Z,35.25
2023-03-25T20:30:11.344Z,35.55
2023-03-25T20:32:42.517Z,35.88
2023-03-25T20:35:13.163Z,34.58
2023-03-25T20:37:41.496Z,36.28
2023-03-25T20:40:12.905Z,35.72
2023-03-25T20:42:41.748Z,34.55
2023-03-25T20:45:12.115Z,35.85
2023-03-25T20:47:40.443Z,34.33
2023-03-25T20:50:09.185Z,33.97
2023-03-25T20:52:38.156Z,33.78
2023-03-25T20:55:07.348Z,33.50
2023-03-25T20:57:37.337Z,33.85
2023-03-25T21:00:06.393Z,33.65
2023-03-25T21:02:34.729Z,33.25
2023-03-25T21:05:03.738Z,33.25
2023-03-25T21:07:35.305Z,33.35
2023-03-25T21:10:03.586Z,33.00
2023-03-25T21:12:42.442Z,31.90
2023-03-25T21:15:13.249Z,32.35
2023-03-25T21:17:42.245Z,32.70
2023-03-25T21:20:11.878Z,30.70
2023-03-25T21:22:43.313Z,31.98
2023-03-25T21:25:13.153Z,30.75
2023-03-25T21:27:42.479Z,30.98
2023-03-25T21:30:13.416Z,30.08
2023-03-25T21:32:41.884Z,29.73
2023-03-25T21:35:10.361Z,30.15
2023-03-25T21:37:41.358Z,28.60
2023-03-25T21:40:11.664Z,28.77
2023-03-25T21:42:41.376Z,28.27
2023-03-25T21:45:10.851Z,29.33
2023-03-25T21:47:41.394Z,29.20
2023-03-25T21:50:11.222Z,28.83
2023-03-25T21:52:43.132Z,27.27
2023-03-25T21:55:11.579Z,29.02
2023-03-25T21:57:40.030Z,28.33
2023-03-25T22:00:09.961Z,27.08
2023-03-25T22:02:43.574Z,27.73
2023-03-25T22:05:12.251Z,27.08
2023-03-25T22:07:40.867Z,26.85
2023-03-25T22:10:10.063Z,27.08
2023-03-25T22:12:38.229Z,25.95
2023-03-25T22:15:07.579Z,26.23
2023-03-25T22:17:35.938Z,26.23
2023-03-25T22:20:06.937Z,25.83
2023-03-25T22:22:35.208Z,25.45
2023-03-25T22:25:04.168Z,25.40
2023-03-25T22:27:32.668Z,25.13
2023-03-25T22:30:01.804Z,24.83
2023-03-25T22:32:30.056Z,25.05
2023-03-25T22:34:58.236Z,23.48
2023-03-25T22:37:27.772Z,24.98
2023-03-25T22:39:55.961Z,23.10
2023-03-25T22:42:25.842Z,22.95
2023-03-25T22:44:53.966Z,23.48
2023-03-25T22:47:22.046Z,22.70
2023-03-25T22:49:50.167Z,22.42
2023-03-25T22:52:18.329Z,22.55
2023-03-25T22:54:48.004Z,22.33
2023-03-25T22:57:16.288Z,22.20
2023-03-25T22:59:44.429Z,21.90
2023-03-25T23:02:14.615Z,21.38
2023-03-25T23:04:42.762Z,22.05
2023-03-25T23:07:10.964Z,21.70
2023-03-25T23:09:45.228Z,20.98
2023-03-25T23:12:15.701Z,21.88
2023-03-25T23:14:48.916Z,19.83
2023-03-25T23:17:17.207Z,21.27
2023-03-25T23:19:45.588Z,21.52
2023-03-25T23:22:13.702Z,20.85
2023-03-25T23:24:42.447Z,19.95
2023-03-25T23:27:11.666Z,19.70
2023-03-25T23:29:41.816Z,20.02
2023-03-25T23:32:10.251Z,19.88
2023-03-25T23:34:40.316Z,18.92
2023-03-25T23:37:09.265Z,18.98
2023-03-25T23:39:37.584Z,19.10
2023-03-25T23:42:07.824Z,18.90
2023-03-25T23:44:36.119Z,18.15
2023-03-25T23:47:06.232Z,18.88
2023-03-25T23:49:38.540Z,17.90
2023-03-25T23:52:11.120Z,17.58
2023-03-25T23:54:39.995Z,17.83
2023-03-25T23:57:08.210Z,17.58
2023-03-25T23:59:36.480Z,17.65
